sensor_id;sensor_type;location;lat;lon;timestamp;temperature;humidity
26621;DHT22;14253;44.840;10.444;2023-02-13T00:02:17;1.90;99.90
26621;DHT22;14253;44.840;10.444;2023-02-13T00:04:43;1.90;99.90
26621;DHT22;14253;44.840;10.444;2023-02-13T00:07:10;1.80;99.90
26621;DHT22;14253;44.840;10.444;2023-02-13T00:09:39;1.80;99.90
26621;DHT22;14253;44.840;10.444;2023-02-13T00:12:06;1.80;99.90
26621;DHT22;14253;44.840;10.444;2023-02-13T00:14:37;1.70;99.90
26621;DHT22;14253;44.840;10.444;2023-02-13T00:17:03;1.50;99.90
26621;DHT22;14253;44.840;10.444;2023-02-13T00:19:30;1.40;99.90
26621;DHT22;14253;44.840;10.444;2023-02-13T00:21:55;1.40;99.90
26621;DHT22;14253;44.840;10.444;2023-02-13T00:24:21;1.30;99.90
26621;DHT22;14253;44.840;10.444;2023-02-13T00:26:47;1.10;99.90
26621;DHT22;14253;44.840;10.444;2023-02-13T00:29:13;0.90;99.90
26621;DHT22;14253;44.840;10.444;2023-02-13T00:31:39;0.90;99.90
26621;DHT22;14253;44.840;10.444;2023-02-13T00:34:06;0.90;99.90
26621;DHT22;14253;44.840;10.444;2023-02-13T00:36:32;0.90;99.90
26621;DHT22;14253;44.840;10.444;2023-02-13T00:38:57;0.90;99.90
26621;DHT22;14253;44.840;10.444;2023-02-13T00:41:24;0.90;99.90
26621;DHT22;14253;44.840;10.444;2023-02-13T00:43:50;1.00;99.90
26621;DHT22;14253;44.840;10.444;2023-02-13T00:46:16;0.90;99.90
26621;DHT22;14253;44.840;10.444;2023-02-13T00:48:42;0.90;99.90
26621;DHT22;14253;44.840;10.444;2023-02-13T00:51:09;0.90;99.90
26621;DHT22;14253;44.840;10.444;2023-02-13T00:53:36;0.80;99.90
26621;DHT22;14253;44.840;10.444;2023-02-13T00:56:03;0.70;99.90
26621;DHT22;14253;44.840;10.444;2023-02-13T00:58:29;0.70;99.90
26621;DHT22;14253;44.840;10.444;2023-02-13T01:00:56;0.60;99.90
26621;DHT22;14253;44.840;10.444;2023-02-13T01:03:23;0.70;99.90
26621;DHT22;14253;44.840;10.444;2023-02-13T01:05:49;0.80;99.90
26621;DHT22;14253;44.840;10.444;2023-02-13T01:08:17;0.80;99.90
26621;DHT22;14253;44.840;10.444;2023-02-13T01:10:44;0.70;99.90
26621;DHT22;14253;44.840;10.444;2023-02-13T01:13:11;0.80;99.90
26621;DHT22;14253;44.840;10.444;2023-02-13T01:15:38;0.80;99.90
26621;DHT22;14253;44.840;10.444;2023-02-13T01:18:05;0.70;99.90
26621;DHT22;14253;44.840;10.444;2023-02-13T01:20:31;0.70;99.90
26621;DHT22;14253;44.840;10.444;2023-02-13T01:22:57;0.80;99.90
26621;DHT22;14253;44.840;10.444;2023-02-13T01:25:23;0.80;99.90
26621;DHT22;14253;44.840;10.444;2023-02-13T01:27:50;0.70;99.90
26621;DHT22;14253;44.840;10.444;2023-02-13T01:30:17;0.80;99.90
26621;DHT22;14253;44.840;10.444;2023-02-13T01:32:45;0.70;99.90
26621;DHT22;14253;44.840;10.444;2023-02-13T01:35:12;0.70;99.90
26621;DHT22;14253;44.840;10.444;2023-02-13T01:37:39;0.70;99.90
26621;DHT22;14253;44.840;10.444;2023-02-13T01:40:09;0.60;99.90
26621;DHT22;14253;44.840;10.444;2023-02-13T01:42:35;0.60;99.90
26621;DHT22;14253;44.840;10.444;2023-02-13T01:45:24;0.60;99.90
26621;DHT22;14253;44.840;10.444;2023-02-13T01:48:01;0.60;99.90
26621;DHT22;14253;44.840;10.444;2023-02-13T01:50:32;0.60;99.90
26621;DHT22;14253;44.840;10.444;2023-02-13T01:55:30;0.60;99.90
26621;DHT22;14253;44.840;10.444;2023-02-13T01:58:02;0.60;99.90
26621;DHT22;14253;44.840;10.444;2023-02-13T02:00:29;0.50;99.90
26621;DHT22;14253;44.840;10.444;2023-02-13T02:03:08;0.40;99.90
26621;DHT22;14253;44.840;10.444;2023-02-13T02:05:35;0.40;99.90
26621;DHT22;14253;44.840;10.444;2023-02-13T02:08:03;0.40;99.90
26621;DHT22;14253;44.840;10.444;2023-02-13T02:10:31;0.30;99.90
26621;DHT22;14253;44.840;10.444;2023-02-13T02:13:06;0.30;99.90
26621;DHT22;14253;44.840;10.444;2023-02-13T02:15:33;0.30;99.90
26621;DHT22;14253;44.840;10.444;2023-02-13T02:17:59;0.30;99.90
26621;DHT22;14253;44.840;10.444;2023-02-13T02:29:05;0.20;99.90
26621;DHT22;14253;44.840;10.444;2023-02-13T02:32:00;0.30;99.90
26621;DHT22;14253;44.840;10.444;2023-02-13T02:40:25;0.10;99.90
26621;DHT22;14253;44.840;10.444;2023-02-13T02:46:09;-0.10;99.90
26621;DHT22;14253;44.840;10.444;2023-02-13T02:54:08;-0.20;99.90
26621;DHT22;14253;44.840;10.444;2023-02-13T02:57:00;-0.30;99.90
26621;DHT22;14253;44.840;10.444;2023-02-13T02:59:29;-0.40;99.90
26621;DHT22;14253;44.840;10.444;2023-02-13T03:02:15;-0.30;99.90
26621;DHT22;14253;44.840;10.444;2023-02-13T03:05:00;-0.30;99.90
26621;DHT22;14253;44.840;10.444;2023-02-13T03:07:45;-0.40;99.90
26621;DHT22;14253;44.840;10.444;2023-02-13T03:10:28;-0.50;99.90
26621;DHT22;14253;44.840;10.444;2023-02-13T03:13:27;-0.60;99.90
26621;DHT22;14253;44.840;10.444;2023-02-13T03:15:57;-0.60;99.90
26621;DHT22;14253;44.840;10.444;2023-02-13T03:18:46;-0.60;99.90
26621;DHT22;14253;44.840;10.444;2023-02-13T03:25:01;-0.70;99.90
26621;DHT22;14253;44.840;10.444;2023-02-13T03:38:58;-0.60;99.90
26621;DHT22;14253;44.840;10.444;2023-02-13T03:44:19;-0.80;99.90
26621;DHT22;14253;44.840;10.444;2023-02-13T03:46:50;-0.80;99.90
26621;DHT22;14253;44.840;10.444;2023-02-13T03:49:49;-0.70;99.90
26621;DHT22;14253;44.840;10.444;2023-02-13T03:53:04;-0.70;99.90
26621;DHT22;14253;44.840;10.444;2023-02-13T03:55:35;-0.70;99.90
26621;DHT22;14253;44.840;10.444;2023-02-13T03:58:28;-0.60;99.90
26621;DHT22;14253;44.840;10.444;2023-02-13T04:01:16;-0.60;99.90
26621;DHT22;14253;44.840;10.444;2023-02-13T04:03:54;-0.70;99.90
26621;DHT22;14253;44.840;10.444;2023-02-13T04:06:37;-0.80;99.90
26621;DHT22;14253;44.840;10.444;2023-02-13T04:09:07;-0.70;99.90
26621;DHT22;14253;44.840;10.444;2023-02-13T04:12:16;-0.70;99.90
26621;DHT22;14253;44.840;10.444;2023-02-13T04:15:01;-0.60;99.90
26621;DHT22;14253;44.840;10.444;2023-02-13T04:17:35;-0.60;99.90
26621;DHT22;14253;44.840;10.444;2023-02-13T04:20:03;-0.80;99.90
26621;DHT22;14253;44.840;10.444;2023-02-13T04:22:41;-0.90;99.90
26621;DHT22;14253;44.840;10.444;2023-02-13T04:25:25;-0.90;99.90
26621;DHT22;14253;44.840;10.444;2023-02-13T04:28:18;-1.00;99.90
26621;DHT22;14253;44.840;10.444;2023-02-13T04:31:06;-1.00;99.90
26621;DHT22;14253;44.840;10.444;2023-02-13T04:33:48;-0.90;99.90
26621;DHT22;14253;44.840;10.444;2023-02-13T04:36:38;-0.80;99.90
26621;DHT22;14253;44.840;10.444;2023-02-13T04:39:23;-0.80;99.90
26621;DHT22;14253;44.840;10.444;2023-02-13T04:42:07;-0.80;99.90
26621;DHT22;14253;44.840;10.444;2023-02-13T04:44:43;-0.80;99.90
26621;DHT22;14253;44.840;10.444;2023-02-13T04:47:09;-0.80;99.90
26621;DHT22;14253;44.840;10.444;2023-02-13T04:49:35;-0.90;99.90
26621;DHT22;14253;44.840;10.444;2023-02-13T04:52:01;-0.90;99.90
26621;DHT22;14253;44.840;10.444;2023-02-13T04:54:27;-0.90;99.90
26621;DHT22;14253;44.840;10.444;2023-02-13T04:56:53;-0.90;99.90
26621;DHT22;14253;44.840;10.444;2023-02-13T04:59:19;-0.80;99.90
26621;DHT22;14253;44.840;10.444;2023-02-13T05:01:45;-0.80;99.90
26621;DHT22;14253;44.840;10.444;2023-02-13T05:04:11;-0.80;99.90
26621;DHT22;14253;44.840;10.444;2023-02-13T05:06:41;-0.70;99.90
26621;DHT22;14253;44.840;10.444;2023-02-13T05:09:08;-0.70;99.90
26621;DHT22;14253;44.840;10.444;2023-02-13T05:11:34;-0.70;99.90
26621;DHT22;14253;44.840;10.444;2023-02-13T05:14:00;-0.80;99.90
26621;DHT22;14253;44.840;10.444;2023-02-13T05:16:26;-0.80;99.90
26621;DHT22;14253;44.840;10.444;2023-02-13T05:18:52;-0.70;99.90
26621;DHT22;14253;44.840;10.444;2023-02-13T05:21:22;-0.80;99.90
26621;DHT22;14253;44.840;10.444;2023-02-13T05:24:06;-0.80;99.90
26621;DHT22;14253;44.840;10.444;2023-02-13T05:26:32;-0.80;99.90
26621;DHT22;14253;44.840;10.444;2023-02-13T05:29:00;-0.80;99.90
26621;DHT22;14253;44.840;10.444;2023-02-13T05:31:49;-0.70;99.90
26621;DHT22;14253;44.840;10.444;2023-02-13T05:34:15;-0.70;99.90
26621;DHT22;14253;44.840;10.444;2023-02-13T05:36:41;-0.70;99.90
26621;DHT22;14253;44.840;10.444;2023-02-13T05:39:08;-0.70;99.90
26621;DHT22;14253;44.840;10.444;2023-02-13T05:41:34;-0.70;99.90
26621;DHT22;14253;44.840;10.444;2023-02-13T05:44:00;-0.70;99.90
26621;DHT22;14253;44.840;10.444;2023-02-13T05:46:26;-0.70;99.90
26621;DHT22;14253;44.840;10.444;2023-02-13T05:48:52;-0.70;99.90
26621;DHT22;14253;44.840;10.444;2023-02-13T05:51:20;-0.70;99.90
26621;DHT22;14253;44.840;10.444;2023-02-13T05:53:46;-0.70;99.90
26621;DHT22;14253;44.840;10.444;2023-02-13T05:56:12;-0.70;99.90
26621;DHT22;14253;44.840;10.444;2023-02-13T05:58:37;-0.70;99.90
26621;DHT22;14253;44.840;10.444;2023-02-13T06:01:04;-0.60;99.90
26621;DHT22;14253;44.840;10.444;2023-02-13T06:03:30;-0.60;99.90
26621;DHT22;14253;44.840;10.444;2023-02-13T06:05:57;-0.60;99.90
26621;DHT22;14253;44.840;10.444;2023-02-13T06:08:24;-0.60;99.90
26621;DHT22;14253;44.840;10.444;2023-02-13T06:10:51;-0.70;99.90
26621;DHT22;14253;44.840;10.444;2023-02-13T06:13:17;-0.70;99.90
26621;DHT22;14253;44.840;10.444;2023-02-13T06:15:44;-0.70;99.90
26621;DHT22;14253;44.840;10.444;2023-02-13T06:18:10;-0.80;99.90
26621;DHT22;14253;44.840;10.444;2023-02-13T06:20:37;-0.80;99.90
26621;DHT22;14253;44.840;10.444;2023-02-13T06:23:03;-0.80;99.90
26621;DHT22;14253;44.840;10.444;2023-02-13T06:25:29;-0.70;99.90
26621;DHT22;14253;44.840;10.444;2023-02-13T06:27:55;-0.70;99.90
26621;DHT22;14253;44.840;10.444;2023-02-13T06:30:21;-0.70;99.90
26621;DHT22;14253;44.840;10.444;2023-02-13T06:32:48;-0.70;99.90
26621;DHT22;14253;44.840;10.444;2023-02-13T06:35:14;-0.70;99.90
26621;DHT22;14253;44.840;10.444;2023-02-13T06:37:41;-0.70;99.90
26621;DHT22;14253;44.840;10.444;2023-02-13T06:40:09;-0.70;99.90
26621;DHT22;14253;44.840;10.444;2023-02-13T06:42:35;-0.70;99.90
26621;DHT22;14253;44.840;10.444;2023-02-13T06:45:02;-0.70;99.90
26621;DHT22;14253;44.840;10.444;2023-02-13T06:47:28;-0.70;99.90
26621;DHT22;14253;44.840;10.444;2023-02-13T06:49:54;-0.60;99.90
26621;DHT22;14253;44.840;10.444;2023-02-13T06:52:20;-0.60;99.90
26621;DHT22;14253;44.840;10.444;2023-02-13T06:54:47;-0.60;99.90
26621;DHT22;14253;44.840;10.444;2023-02-13T06:57:13;-0.50;99.90
26621;DHT22;14253;44.840;10.444;2023-02-13T06:59:39;-0.30;99.90
26621;DHT22;14253;44.840;10.444;2023-02-13T07:02:05;-0.20;99.90
26621;DHT22;14253;44.840;10.444;2023-02-13T07:04:30;0.00;99.90
26621;DHT22;14253;44.840;10.444;2023-02-13T07:06:56;0.10;99.90
26621;DHT22;14253;44.840;10.444;2023-02-13T07:09:23;0.30;99.90
26621;DHT22;14253;44.840;10.444;2023-02-13T07:11:49;0.40;99.90
26621;DHT22;14253;44.840;10.444;2023-02-13T07:14:15;0.60;99.90
26621;DHT22;14253;44.840;10.444;2023-02-13T07:16:41;0.80;99.90
26621;DHT22;14253;44.840;10.444;2023-02-13T07:19:07;0.90;99.90
26621;DHT22;14253;44.840;10.444;2023-02-13T07:21:33;1.10;99.90
26621;DHT22;14253;44.840;10.444;2023-02-13T07:23:58;1.20;99.90
26621;DHT22;14253;44.840;10.444;2023-02-13T07:26:25;1.30;99.90
26621;DHT22;14253;44.840;10.444;2023-02-13T07:28:52;1.50;99.90
26621;DHT22;14253;44.840;10.444;2023-02-13T07:31:18;1.60;99.90
26621;DHT22;14253;44.840;10.444;2023-02-13T07:33:43;1.70;99.90
26621;DHT22;14253;44.840;10.444;2023-02-13T07:36:13;1.90;99.90
26621;DHT22;14253;44.840;10.444;2023-02-13T07:38:38;2.00;99.90
26621;DHT22;14253;44.840;10.444;2023-02-13T07:41:04;2.20;99.90
26621;DHT22;14253;44.840;10.444;2023-02-13T07:43:31;2.50;99.90
26621;DHT22;14253;44.840;10.444;2023-02-13T07:46:02;2.60;99.90
26621;DHT22;14253;44.840;10.444;2023-02-13T07:48:29;2.70;99.90
26621;DHT22;14253;44.840;10.444;2023-02-13T07:51:00;2.80;99.90
26621;DHT22;14253;44.840;10.444;2023-02-13T07:53:27;2.90;99.90
26621;DHT22;14253;44.840;10.444;2023-02-13T07:55:53;3.10;99.90
26621;DHT22;14253;44.840;10.444;2023-02-13T07:58:19;3.10;99.90
26621;DHT22;14253;44.840;10.444;2023-02-13T08:00:45;3.10;99.90
26621;DHT22;14253;44.840;10.444;2023-02-13T08:03:11;3.30;99.90
26621;DHT22;14253;44.840;10.444;2023-02-13T08:05:38;3.40;99.90
26621;DHT22;14253;44.840;10.444;2023-02-13T08:08:05;3.60;99.90
26621;DHT22;14253;44.840;10.444;2023-02-13T08:10:31;3.60;99.90
26621;DHT22;14253;44.840;10.444;2023-02-13T08:13:16;3.60;99.90
26621;DHT22;14253;44.840;10.444;2023-02-13T08:15:42;3.60;99.90
26621;DHT22;14253;44.840;10.444;2023-02-13T08:18:09;3.70;99.90
26621;DHT22;14253;44.840;10.444;2023-02-13T08:20:36;3.90;99.90
26621;DHT22;14253;44.840;10.444;2023-02-13T08:23:08;3.90;99.90
26621;DHT22;14253;44.840;10.444;2023-02-13T08:25:34;3.90;99.90
26621;DHT22;14253;44.840;10.444;2023-02-13T08:28:01;4.00;99.90
26621;DHT22;14253;44.840;10.444;2023-02-13T08:30:28;4.10;99.90
26621;DHT22;14253;44.840;10.444;2023-02-13T08:32:54;4.10;99.90
26621;DHT22;14253;44.840;10.444;2023-02-13T08:35:21;4.20;99.90
26621;DHT22;14253;44.840;10.444;2023-02-13T08:37:47;4.30;99.90
26621;DHT22;14253;44.840;10.444;2023-02-13T08:40:13;4.30;99.90
26621;DHT22;14253;44.840;10.444;2023-02-13T08:42:39;4.40;99.90
26621;DHT22;14253;44.840;10.444;2023-02-13T08:45:05;4.50;99.90
26621;DHT22;14253;44.840;10.444;2023-02-13T08:47:31;4.60;99.90
26621;DHT22;14253;44.840;10.444;2023-02-13T08:49:57;4.70;99.90
26621;DHT22;14253;44.840;10.444;2023-02-13T08:52:24;4.80;99.90
26621;DHT22;14253;44.840;10.444;2023-02-13T08:54:50;4.80;99.90
26621;DHT22;14253;44.840;10.444;2023-02-13T08:57:16;4.90;99.90
26621;DHT22;14253;44.840;10.444;2023-02-13T08:59:42;5.00;99.90
26621;DHT22;14253;44.840;10.444;2023-02-13T09:02:10;5.00;99.90
26621;DHT22;14253;44.840;10.444;2023-02-13T09:04:36;5.10;99.90
26621;DHT22;14253;44.840;10.444;2023-02-13T09:07:02;5.20;99.90
26621;DHT22;14253;44.840;10.444;2023-02-13T09:09:28;5.30;99.90
26621;DHT22;14253;44.840;10.444;2023-02-13T09:11:54;5.40;99.90
26621;DHT22;14253;44.840;10.444;2023-02-13T09:14:23;5.40;99.90
26621;DHT22;14253;44.840;10.444;2023-02-13T09:16:49;5.50;99.90
26621;DHT22;14253;44.840;10.444;2023-02-13T09:19:15;5.40;99.90
26621;DHT22;14253;44.840;10.444;2023-02-13T09:21:41;5.50;99.90
26621;DHT22;14253;44.840;10.444;2023-02-13T09:24:08;5.60;99.90
26621;DHT22;14253;44.840;10.444;2023-02-13T09:26:34;5.70;99.90
26621;DHT22;14253;44.840;10.444;2023-02-13T09:29:00;5.70;99.90
26621;DHT22;14253;44.840;10.444;2023-02-13T09:31:26;5.70;99.90
26621;DHT22;14253;44.840;10.444;2023-02-13T09:33:53;5.90;99.90
26621;DHT22;14253;44.840;10.444;2023-02-13T09:36:21;5.90;99.90
26621;DHT22;14253;44.840;10.444;2023-02-13T09:38:53;5.90;99.90
26621;DHT22;14253;44.840;10.444;2023-02-13T09:43:57;6.00;99.90
26621;DHT22;14253;44.840;10.444;2023-02-13T09:46:31;6.10;99.90
26621;DHT22;14253;44.840;10.444;2023-02-13T09:49:00;6.30;99.90
26621;DHT22;14253;44.840;10.444;2023-02-13T09:51:27;6.50;99.90
26621;DHT22;14253;44.840;10.444;2023-02-13T09:54:05;6.60;99.90
26621;DHT22;14253;44.840;10.444;2023-02-13T10:16:28;7.20;99.90
26621;DHT22;14253;44.840;10.444;2023-02-13T10:21:41;7.40;99.90
26621;DHT22;14253;44.840;10.444;2023-02-13T10:24:34;7.50;99.90
26621;DHT22;14253;44.840;10.444;2023-02-13T10:32:53;7.70;99.90
26621;DHT22;14253;44.840;10.444;2023-02-13T10:35:37;7.80;99.90
26621;DHT22;14253;44.840;10.444;2023-02-13T10:38:15;7.90;99.90
26621;DHT22;14253;44.840;10.444;2023-02-13T10:43:26;8.10;99.90
26621;DHT22;14253;44.840;10.444;2023-02-13T10:49:30;8.30;99.90
26621;DHT22;14253;44.840;10.444;2023-02-13T10:54:58;8.50;99.90
26621;DHT22;14253;44.840;10.444;2023-02-13T10:57:55;8.50;99.90
26621;DHT22;14253;44.840;10.444;2023-02-13T11:00:44;8.50;99.90
26621;DHT22;14253;44.840;10.444;2023-02-13T11:03:26;8.50;99.90
26621;DHT22;14253;44.840;10.444;2023-02-13T11:05:54;8.70;99.90
26621;DHT22;14253;44.840;10.444;2023-02-13T11:08:26;8.70;99.90
26621;DHT22;14253;44.840;10.444;2023-02-13T11:10:55;8.80;99.90
26621;DHT22;14253;44.840;10.444;2023-02-13T11:13:23;8.90;99.90
26621;DHT22;14253;44.840;10.444;2023-02-13T11:18:30;9.20;99.90
26621;DHT22;14253;44.840;10.444;2023-02-13T11:21:09;9.30;99.90
26621;DHT22;14253;44.840;10.444;2023-02-13T11:23:44;9.50;99.90
26621;DHT22;14253;44.840;10.444;2023-02-13T11:26:33;9.60;99.90
26621;DHT22;14253;44.840;10.444;2023-02-13T11:29:21;9.90;99.90
26621;DHT22;14253;44.840;10.444;2023-02-13T11:34:44;10.20;99.90
26621;DHT22;14253;44.840;10.444;2023-02-13T11:37:15;10.30;99.90
26621;DHT22;14253;44.840;10.444;2023-02-13T11:39:43;10.30;99.90
26621;DHT22;14253;44.840;10.444;2023-02-13T11:42:21;10.50;99.90
26621;DHT22;14253;44.840;10.444;2023-02-13T11:44:53;10.70;99.90
26621;DHT22;14253;44.840;10.444;2023-02-13T11:47:39;10.70;99.90
26621;DHT22;14253;44.840;10.444;2023-02-13T12:00:37;11.30;99.90
26621;DHT22;14253;44.840;10.444;2023-02-13T12:03:25;11.30;99.90
26621;DHT22;14253;44.840;10.444;2023-02-13T12:06:12;11.40;99.90
26621;DHT22;14253;44.840;10.444;2023-02-13T12:08:49;11.60;99.90
26621;DHT22;14253;44.840;10.444;2023-02-13T12:11:32;11.80;99.90
26621;DHT22;14253;44.840;10.444;2023-02-13T12:13:59;11.90;99.90
26621;DHT22;14253;44.840;10.444;2023-02-13T12:16:35;11.80;99.90
26621;DHT22;14253;44.840;10.444;2023-02-13T12:19:06;12.00;99.90
26621;DHT22;14253;44.840;10.444;2023-02-13T12:27:49;12.00;99.90
26621;DHT22;14253;44.840;10.444;2023-02-13T12:41:29;12.40;99.90
26621;DHT22;14253;44.840;10.444;2023-02-13T12:44:39;12.50;99.90
26621;DHT22;14253;44.840;10.444;2023-02-13T12:47:39;12.60;99.90
26621;DHT22;14253;44.840;10.444;2023-02-13T12:55:40;12.60;99.90
26621;DHT22;14253;44.840;10.444;2023-02-13T13:03:34;13.10;99.90
26621;DHT22;14253;44.840;10.444;2023-02-13T13:06:42;13.30;99.90
26621;DHT22;14253;44.840;10.444;2023-02-13T13:25:23;13.50;99.90
26621;DHT22;14253;44.840;10.444;2023-02-13T13:28:10;13.70;99.90
26621;DHT22;14253;44.840;10.444;2023-02-13T13:30:38;13.70;99.90
26621;DHT22;14253;44.840;10.444;2023-02-13T13:33:16;13.70;99.90
26621;DHT22;14253;44.840;10.444;2023-02-13T13:35:57;13.80;99.90
26621;DHT22;14253;44.840;10.444;2023-02-13T13:41:04;13.80;99.90
26621;DHT22;14253;44.840;10.444;2023-02-13T13:43:51;13.90;99.90
26621;DHT22;14253;44.840;10.444;2023-02-13T13:52:21;13.80;99.90
26621;DHT22;14253;44.840;10.444;2023-02-13T13:54:48;13.90;99.90
26621;DHT22;14253;44.840;10.444;2023-02-13T13:59:55;13.90;99.90
26621;DHT22;14253;44.840;10.444;2023-02-13T14:05:01;13.90;99.90
26621;DHT22;14253;44.840;10.444;2023-02-13T14:07:34;14.00;99.90
26621;DHT22;14253;44.840;10.444;2023-02-13T14:10:00;14.00;99.90
26621;DHT22;14253;44.840;10.444;2023-02-13T14:14:53;13.90;99.90
26621;DHT22;14253;44.840;10.444;2023-02-13T14:17:48;14.00;99.90
26621;DHT22;14253;44.840;10.444;2023-02-13T14:28:55;14.40;99.90
26621;DHT22;14253;44.840;10.444;2023-02-13T14:31:22;14.20;99.90
26621;DHT22;14253;44.840;10.444;2023-02-13T14:34:04;14.40;99.90
26621;DHT22;14253;44.840;10.444;2023-02-13T14:36:33;14.50;99.90
26621;DHT22;14253;44.840;10.444;2023-02-13T14:39:07;14.70;99.90
26621;DHT22;14253;44.840;10.444;2023-02-13T14:41:59;14.80;99.90
26621;DHT22;14253;44.840;10.444;2023-02-13T14:44:45;15.10;99.90
26621;DHT22;14253;44.840;10.444;2023-02-13T14:49:52;16.00;99.90
26621;DHT22;14253;44.840;10.444;2023-02-13T14:52:38;16.50;99.90
26621;DHT22;14253;44.840;10.444;2023-02-13T14:57:42;17.50;99.90
26621;DHT22;14253;44.840;10.444;2023-02-13T15:00:26;17.50;99.90
26621;DHT22;14253;44.840;10.444;2023-02-13T15:03:43;17.60;99.90
26621;DHT22;14253;44.840;10.444;2023-02-13T15:05:51;18.50;99.90
26621;DHT22;14253;44.840;10.444;2023-02-13T15:08:21;18.60;99.90
26621;DHT22;14253;44.840;10.444;2023-02-13T15:10:51;18.40;99.90
26621;DHT22;14253;44.840;10.444;2023-02-13T15:13:23;18.10;99.90
26621;DHT22;14253;44.840;10.444;2023-02-13T15:15:52;18.10;99.90
26621;DHT22;14253;44.840;10.444;2023-02-13T15:18:23;18.40;99.90
26621;DHT22;14253;44.840;10.444;2023-02-13T15:20:56;18.60;99.90
26621;DHT22;14253;44.840;10.444;2023-02-13T15:23:29;18.80;99.90
26621;DHT22;14253;44.840;10.444;2023-02-13T15:28:24;18.50;99.90
26621;DHT22;14253;44.840;10.444;2023-02-13T15:30:59;18.60;99.90
26621;DHT22;14253;44.840;10.444;2023-02-13T15:33:42;18.30;99.90
26621;DHT22;14253;44.840;10.444;2023-02-13T15:36:20;17.70;99.90
26621;DHT22;14253;44.840;10.444;2023-02-13T15:38:46;16.70;99.90
26621;DHT22;14253;44.840;10.444;2023-02-13T15:41:18;15.90;99.90
26621;DHT22;14253;44.840;10.444;2023-02-13T15:43:47;15.10;99.90
26621;DHT22;14253;44.840;10.444;2023-02-13T15:46:20;14.50;99.90
26621;DHT22;14253;44.840;10.444;2023-02-13T15:48:49;14.00;99.90
26621;DHT22;14253;44.840;10.444;2023-02-13T15:51:33;13.60;99.90
26621;DHT22;14253;44.840;10.444;2023-02-13T15:54:05;13.20;99.90
26621;DHT22;14253;44.840;10.444;2023-02-13T15:56:32;12.90;99.90
26621;DHT22;14253;44.840;10.444;2023-02-13T15:58:59;12.60;99.90
26621;DHT22;14253;44.840;10.444;2023-02-13T16:01:27;12.40;99.90
26621;DHT22;14253;44.840;10.444;2023-02-13T16:04:03;12.20;99.90
26621;DHT22;14253;44.840;10.444;2023-02-13T16:06:30;12.00;99.90
26621;DHT22;14253;44.840;10.444;2023-02-13T16:08:59;11.80;99.90
26621;DHT22;14253;44.840;10.444;2023-02-13T16:11:37;11.70;99.90
26621;DHT22;14253;44.840;10.444;2023-02-13T16:16:50;11.20;99.90
26621;DHT22;14253;44.840;10.444;2023-02-13T16:21:50;10.80;99.90
26621;DHT22;14253;44.840;10.444;2023-02-13T16:24:17;10.60;99.90
26621;DHT22;14253;44.840;10.444;2023-02-13T16:26:44;10.40;99.90
26621;DHT22;14253;44.840;10.444;2023-02-13T16:29:18;10.30;99.90
26621;DHT22;14253;44.840;10.444;2023-02-13T16:31:46;10.10;99.90
26621;DHT22;14253;44.840;10.444;2023-02-13T16:34:23;9.90;99.90
26621;DHT22;14253;44.840;10.444;2023-02-13T16:36:50;9.80;99.90
26621;DHT22;14253;44.840;10.444;2023-02-13T16:39:25;9.60;99.90
26621;DHT22;14253;44.840;10.444;2023-02-13T16:41:51;9.50;99.90
26621;DHT22;14253;44.840;10.444;2023-02-13T16:44:26;9.50;99.90
26621;DHT22;14253;44.840;10.444;2023-02-13T16:47:04;9.40;99.90
26621;DHT22;14253;44.840;10.444;2023-02-13T16:49:34;9.20;99.90
26621;DHT22;14253;44.840;10.444;2023-02-13T16:52:13;9.10;99.90
26621;DHT22;14253;44.840;10.444;2023-02-13T16:54:58;9.00;99.90
26621;DHT22;14253;44.840;10.444;2023-02-13T16:57:29;8.80;99.90
26621;DHT22;14253;44.840;10.444;2023-02-13T17:02:35;8.60;99.90
26621;DHT22;14253;44.840;10.444;2023-02-13T17:07:37;8.40;99.90
26621;DHT22;14253;44.840;10.444;2023-02-13T17:10:24;8.30;99.90
26621;DHT22;14253;44.840;10.444;2023-02-13T17:12:58;8.20;99.90
26621;DHT22;14253;44.840;10.444;2023-02-13T17:15:28;8.10;99.90
26621;DHT22;14253;44.840;10.444;2023-02-13T17:17:54;8.00;99.90
26621;DHT22;14253;44.840;10.444;2023-02-13T17:20:27;8.00;99.90
26621;DHT22;14253;44.840;10.444;2023-02-13T17:22:56;7.90;99.90
26621;DHT22;14253;44.840;10.444;2023-02-13T17:25:28;7.80;99.90
26621;DHT22;14253;44.840;10.444;2023-02-13T17:27:58;7.70;99.90
26621;DHT22;14253;44.840;10.444;2023-02-13T17:30:29;7.70;99.90
26621;DHT22;14253;44.840;10.444;2023-02-13T17:33:06;7.60;99.90
26621;DHT22;14253;44.840;10.444;2023-02-13T17:35:35;7.50;99.90
26621;DHT22;14253;44.840;10.444;2023-02-13T17:38:01;7.50;99.90
26621;DHT22;14253;44.840;10.444;2023-02-13T17:40:27;7.40;99.90
26621;DHT22;14253;44.840;10.444;2023-02-13T17:42:56;7.40;99.90
26621;DHT22;14253;44.840;10.444;2023-02-13T17:45:25;7.30;99.90
26621;DHT22;14253;44.840;10.444;2023-02-13T17:47:52;7.20;99.90
26621;DHT22;14253;44.840;10.444;2023-02-13T17:50:20;7.20;99.90
26621;DHT22;14253;44.840;10.444;2023-02-13T17:52:46;7.20;99.90
26621;DHT22;14253;44.840;10.444;2023-02-13T17:55:28;7.10;99.90
26621;DHT22;14253;44.840;10.444;2023-02-13T17:57:56;7.00;99.90
26621;DHT22;14253;44.840;10.444;2023-02-13T18:00:24;7.00;99.90
26621;DHT22;14253;44.840;10.444;2023-02-13T18:02:51;7.00;99.90
26621;DHT22;14253;44.840;10.444;2023-02-13T18:05:18;7.00;99.90
26621;DHT22;14253;44.840;10.444;2023-02-13T18:07:45;6.90;99.90
26621;DHT22;14253;44.840;10.444;2023-02-13T18:10:26;6.80;99.90
26621;DHT22;14253;44.840;10.444;2023-02-13T18:12:53;6.80;99.90
26621;DHT22;14253;44.840;10.444;2023-02-13T18:15:20;6.70;99.90
26621;DHT22;14253;44.840;10.444;2023-02-13T18:17:47;6.60;99.90
26621;DHT22;14253;44.840;10.444;2023-02-13T18:20:16;6.60;99.90
26621;DHT22;14253;44.840;10.444;2023-02-13T18:22:43;6.50;99.90
26621;DHT22;14253;44.840;10.444;2023-02-13T18:25:09;6.40;99.90
26621;DHT22;14253;44.840;10.444;2023-02-13T18:27:35;6.30;99.90
26621;DHT22;14253;44.840;10.444;2023-02-13T18:30:01;6.20;99.90
26621;DHT22;14253;44.840;10.444;2023-02-13T18:32:27;6.20;99.90
26621;DHT22;14253;44.840;10.444;2023-02-13T18:34:53;6.10;99.90
26621;DHT22;14253;44.840;10.444;2023-02-13T18:37:19;6.00;99.90
26621;DHT22;14253;44.840;10.444;2023-02-13T18:39:45;6.00;99.90
26621;DHT22;14253;44.840;10.444;2023-02-13T18:42:11;5.90;99.90
26621;DHT22;14253;44.840;10.444;2023-02-13T18:44:38;5.80;99.90
26621;DHT22;14253;44.840;10.444;2023-02-13T18:47:04;5.80;99.90
26621;DHT22;14253;44.840;10.444;2023-02-13T18:49:30;5.70;99.90
26621;DHT22;14253;44.840;10.444;2023-02-13T18:51:56;5.70;99.90
26621;DHT22;14253;44.840;10.444;2023-02-13T18:54:23;5.60;99.90
26621;DHT22;14253;44.840;10.444;2023-02-13T18:56:49;5.50;99.90
26621;DHT22;14253;44.840;10.444;2023-02-13T18:59:15;5.50;99.90